createdAt,value
2018-05-31T00:02:25.660Z,92.60
2018-05-31T00:04:52.061Z,93.10
2018-05-31T00:07:18.513Z,93.50
2018-05-31T00:09:44.982Z,93.20
2018-05-31T00:12:11.410Z,93.50
2018-05-31T00:14:37.824Z,92.90
2018-05-31T00:17:04.246Z,93.60
2018-05-31T00:19:30.665Z,93.10
2018-05-31T00:21:57.101Z,93.80
2018-05-31T00:24:23.537Z,93.70
2018-05-31T00:30:11.435Z,93.10
2018-05-31T00:32:37.914Z,93.20
2018-05-31T00:35:06.110Z,93.20
2018-05-31T00:37:32.551Z,93.20
2018-05-31T00:39:59.123Z,93.70
2018-05-31T00:42:25.547Z,93.40
2018-05-31T00:44:52.067Z,94.00
2018-05-31T00:47:18.520Z,94.10
2018-05-31T00:49:45.035Z,94.40
2018-05-31T00:52:11.465Z,93.90
2018-05-31T00:54:37.987Z,93.80
2018-05-31T00:57:05.162Z,93.80
2018-05-31T00:59:31.658Z,93.80
2018-05-31T01:01:58.905Z,93.90
2018-05-31T01:04:25.379Z,93.90
2018-05-31T01:06:52.913Z,93.90
2018-05-31T01:09:19.336Z,94.30
2018-05-31T01:11:45.772Z,94.00
2018-05-31T01:25:48.820Z,93.40
2018-05-31T01:28:16.011Z,93.70
2018-05-31T01:30:42.455Z,93.70
2018-05-31T01:33:08.906Z,93.90
2018-05-31T01:38:13.566Z,94.20
2018-05-31T01:40:40.196Z,94.50
2018-05-31T01:43:06.638Z,94.00
2018-05-31T01:45:33.852Z,94.20
2018-05-31T01:48:00.288Z,94.10
2018-05-31T01:50:26.762Z,94.20
2018-05-31T01:52:53.951Z,94.20
2018-05-31T01:55:20.375Z,94.20
2018-05-31T01:57:46.838Z,93.80
2018-05-31T02:00:14.272Z,94.00
2018-05-31T02:02:40.709Z,94.20
2018-05-31T02:05:07.135Z,94.20
2018-05-31T02:07:33.580Z,94.20
2018-05-31T02:10:00.039Z,93.60
2018-05-31T02:12:26.499Z,93.50
2018-05-31T02:14:53.681Z,94.00
2018-05-31T02:17:20.112Z,94.00
2018-05-31T02:19:46.908Z,93.80
2018-05-31T02:22:13.460Z,93.70
2018-05-31T02:24:40.035Z,94.00
2018-05-31T02:27:06.535Z,93.90
2018-05-31T02:29:32.981Z,93.80
2018-05-31T02:32:00.258Z,94.00
2018-05-31T02:34:26.730Z,94.00
2018-05-31T02:36:53.152Z,93.80
2018-05-31T02:39:19.637Z,93.60
2018-05-31T02:41:46.835Z,93.40
2018-05-31T02:44:13.303Z,93.40
2018-05-31T02:46:39.785Z,93.90
2018-05-31T02:49:06.303Z,94.10
2018-05-31T02:51:32.809Z,94.00
2018-05-31T02:53:59.285Z,94.20
2018-05-31T02:56:25.729Z,94.10
2018-05-31T02:58:52.212Z,95.00
2018-05-31T03:01:18.649Z,94.40
2018-05-31T03:03:45.078Z,94.20
2018-05-31T03:06:12.301Z,94.00
2018-05-31T03:08:38.758Z,94.10
2018-05-31T03:11:05.254Z,93.80
2018-05-31T03:13:31.723Z,93.60
2018-05-31T03:15:58.201Z,94.20
2018-05-31T03:18:24.824Z,94.30
2018-05-31T03:20:51.304Z,94.30
2018-05-31T03:23:19.781Z,94.00
2018-05-31T03:25:46.256Z,93.70
2018-05-31T03:28:13.468Z,94.10
2018-05-31T03:30:39.934Z,94.10
2018-05-31T03:33:06.406Z,93.80
2018-05-31T03:35:32.929Z,93.90
2018-05-31T03:37:59.520Z,94.30
2018-05-31T03:40:26.787Z,93.90
2018-05-31T03:42:53.220Z,93.80
2018-05-31T03:45:37.292Z,94.00
2018-05-31T03:48:05.738Z,94.30
2018-05-31T03:50:32.194Z,94.00
2018-05-31T03:52:58.649Z,94.10
2018-05-31T03:55:25.106Z,93.90
2018-05-31T03:57:51.527Z,93.90
2018-05-31T04:00:17.979Z,94.20
2018-05-31T04:02:45.151Z,93.70
2018-05-31T04:05:11.648Z,93.70
2018-05-31T04:07:38.094Z,94.20
2018-05-31T04:10:04.559Z,94.50
2018-05-31T04:12:31.007Z,94.20
2018-05-31T04:14:57.463Z,94.30
2018-05-31T04:19:53.326Z,94.20
2018-05-31T04:22:19.837Z,94.60
2018-05-31T04:24:46.261Z,94.20
2018-05-31T04:27:12.739Z,94.70
2018-05-31T04:29:39.928Z,94.70
2018-05-31T04:32:06.382Z,94.70
2018-05-31T04:34:32.803Z,94.70
2018-05-31T04:36:59.267Z,94.90
2018-05-31T04:39:25.739Z,95.40
2018-05-31T04:41:52.420Z,95.60
2018-05-31T04:46:44.297Z,95.10
2018-05-31T04:49:17.985Z,95.60
2018-05-31T04:51:44.459Z,95.60
2018-05-31T04:57:55.922Z,96.10
2018-05-31T05:00:22.380Z,96.80
2018-05-31T05:02:48.843Z,97.50
2018-05-31T05:05:16.034Z,98.00
2018-05-31T05:07:42.468Z,98.00
2018-05-31T05:10:08.887Z,97.80
2018-05-31T05:12:35.330Z,97.80
2018-05-31T05:15:01.779Z,97.70
2018-05-31T05:17:28.180Z,97.70
2018-05-31T05:19:55.302Z,97.50
2018-05-31T05:22:22.510Z,97.40
2018-05-31T05:24:48.907Z,97.40
2018-05-31T05:27:16.115Z,96.90
2018-05-31T05:29:42.529Z,96.80
2018-05-31T05:32:08.961Z,96.70
2018-05-31T05:34:35.386Z,96.60
2018-05-31T05:37:01.818Z,96.40
2018-05-31T05:39:28.705Z,96.90
2018-05-31T05:41:55.150Z,96.70
2018-05-31T05:44:21.576Z,97.20
2018-05-31T05:46:47.983Z,97.30
2018-05-31T05:49:15.184Z,97.20
2018-05-31T05:51:41.567Z,97.20
2018-05-31T05:54:07.997Z,97.40
2018-05-31T05:56:35.120Z,97.30
2018-05-31T05:59:01.568Z,97.30
2018-05-31T06:01:28.765Z,97.00
2018-05-31T06:03:55.205Z,97.00
2018-05-31T06:06:21.634Z,97.00
2018-05-31T06:08:48.061Z,97.10
2018-05-31T06:11:14.473Z,97.10
2018-05-31T06:13:42.413Z,96.80
2018-05-31T06:19:01.616Z,96.30
2018-05-31T06:21:28.110Z,96.30
2018-05-31T06:23:54.601Z,96.20
2018-05-31T06:26:21.169Z,96.10
2018-05-31T06:28:47.603Z,96.20
2018-05-31T06:31:14.100Z,96.30
2018-05-31T06:33:40.609Z,96.50
2018-05-31T06:36:07.115Z,96.60
2018-05-31T06:38:37.183Z,96.70
2018-05-31T06:41:03.605Z,96.60
2018-05-31T06:43:30.014Z,96.60
2018-05-31T06:45:57.179Z,96.70
2018-05-31T06:48:23.608Z,96.70
2018-05-31T06:50:50.054Z,96.60
2018-05-31T06:53:16.469Z,96.50
2018-05-31T06:55:42.944Z,96.30
2018-05-31T06:58:09.356Z,96.20
2018-05-31T07:00:35.782Z,96.20
2018-05-31T07:03:02.215Z,96.00
2018-05-31T07:05:28.612Z,96.00
2018-05-31T07:07:55.761Z,95.50
2018-05-31T07:10:23.295Z,94.70
2018-05-31T07:12:49.742Z,95.00
2018-05-31T07:15:16.927Z,94.50
2018-05-31T07:17:43.335Z,94.40
2018-05-31T07:20:10.488Z,94.30
2018-05-31T07:22:38.645Z,94.60
2018-05-31T07:25:05.048Z,94.70
2018-05-31T07:27:32.443Z,94.80
2018-05-31T07:29:59.574Z,95.10
2018-05-31T07:32:34.365Z,95.10
2018-05-31T07:35:00.866Z,95.10
2018-05-31T07:37:28.156Z,95.00
2018-05-31T07:39:54.656Z,95.00
2018-05-31T07:42:21.954Z,95.50
2018-05-31T07:44:48.448Z,95.50
2018-05-31T07:47:15.722Z,95.30
2018-05-31T07:49:42.249Z,95.30
2018-05-31T07:52:08.804Z,94.70
2018-05-31T07:54:35.361Z,94.70
2018-05-31T07:57:01.964Z,94.90
2018-05-31T07:59:28.857Z,94.80
2018-05-31T08:01:55.455Z,95.20
2018-05-31T08:04:22.004Z,95.50
2018-05-31T08:06:48.634Z,95.00
2018-05-31T08:09:15.255Z,95.80
2018-05-31T08:11:41.806Z,95.40
2018-05-31T08:14:08.328Z,95.70
2018-05-31T08:16:34.932Z,96.00
2018-05-31T08:19:02.233Z,95.70
2018-05-31T08:21:28.754Z,95.70
2018-05-31T08:23:55.275Z,95.80
2018-05-31T08:26:21.844Z,95.80
2018-05-31T08:28:48.376Z,95.90
2018-05-31T08:31:15.012Z,95.80
2018-05-31T08:33:41.534Z,95.90
2018-05-31T08:36:08.021Z,96.10
2018-05-31T08:38:34.471Z,95.90
2018-05-31T08:41:00.906Z,95.90
2018-05-31T08:43:27.351Z,95.80
2018-05-31T08:45:53.771Z,95.20
2018-05-31T08:48:20.180Z,95.20
2018-05-31T08:50:47.399Z,94.70
2018-05-31T08:53:14.571Z,95.30
2018-05-31T08:55:56.225Z,95.30
2018-05-31T08:58:23.401Z,94.80
2018-05-31T09:00:49.872Z,94.80
2018-05-31T09:03:16.264Z,94.60
2018-05-31T09:05:42.669Z,94.60
2018-05-31T09:08:09.969Z,94.70
2018-05-31T09:10:36.408Z,94.70
2018-05-31T09:13:02.839Z,94.70
2018-05-31T09:15:29.282Z,94.70
2018-05-31T09:17:55.717Z,94.50
2018-05-31T09:20:22.153Z,94.40
2018-05-31T09:22:49.347Z,94.10
2018-05-31T09:25:15.752Z,94.00
2018-05-31T09:27:47.900Z,94.00
2018-05-31T09:30:14.365Z,94.30
2018-05-31T09:32:41.553Z,94.50
2018-05-31T09:35:08.718Z,94.60
2018-05-31T09:37:35.201Z,94.60
2018-05-31T09:40:01.654Z,94.30
2018-05-31T09:42:28.081Z,94.00
2018-05-31T09:44:54.521Z,94.40
2018-05-31T09:47:20.951Z,94.00
2018-05-31T09:49:48.129Z,93.60
2018-05-31T09:52:16.314Z,92.50
2018-05-31T09:54:42.734Z,92.40
2018-05-31T09:57:09.195Z,92.80
2018-05-31T09:59:35.657Z,92.40
2018-05-31T10:02:02.050Z,91.60
2018-05-31T10:04:29.474Z,91.00
2018-05-31T10:06:56.634Z,90.00
2018-05-31T10:09:23.779Z,89.30
2018-05-31T10:11:50.209Z,89.30
2018-05-31T10:14:17.356Z,87.70
2018-05-31T10:16:44.529Z,89.50
2018-05-31T10:19:18.281Z,89.60
2018-05-31T10:21:45.538Z,85.60
2018-05-31T10:24:12.799Z,84.80
2018-05-31T10:26:40.064Z,84.80
2018-05-31T10:29:06.576Z,84.80
2018-05-31T10:31:33.107Z,82.70
2018-05-31T10:33:59.654Z,83.50
2018-05-31T10:36:26.200Z,79.50
2018-05-31T10:38:55.290Z,78.70
2018-05-31T10:41:22.563Z,79.30
2018-05-31T10:43:49.100Z,79.10
2018-05-31T10:46:15.641Z,78.50
2018-05-31T10:48:42.188Z,78.30
2018-05-31T10:51:08.718Z,76.40
2018-05-31T10:53:35.251Z,76.40
2018-05-31T10:56:01.771Z,78.20
2018-05-31T10:58:28.274Z,81.10
2018-05-31T11:00:55.518Z,78.20
2018-05-31T11:03:22.831Z,77.90
2018-05-31T11:05:49.341Z,77.80
2018-05-31T11:08:15.844Z,77.50
2018-05-31T11:10:42.386Z,75.10
2018-05-31T11:13:09.651Z,71.40
2018-05-31T11:15:36.187Z,71.40
2018-05-31T11:18:03.470Z,70.40
2018-05-31T11:20:29.953Z,70.30
2018-05-31T11:22:56.403Z,74.70
2018-05-31T11:25:30.987Z,77.20
2018-05-31T12:54:13.798Z,52.30
2018-05-31T12:56:51.571Z,55.90
2018-05-31T12:59:19.024Z,55.90
2018-05-31T13:01:46.208Z,58.90
2018-05-31T13:04:13.369Z,57.80
2018-05-31T13:06:39.757Z,57.70
2018-05-31T13:09:06.982Z,53.60
2018-05-31T13:11:33.370Z,53.60
2018-05-31T13:13:59.800Z,56.30
2018-05-31T13:16:36.583Z,54.80
2018-05-31T13:19:03.078Z,56.50
2018-05-31T13:21:29.571Z,58.40
2018-05-31T13:23:56.020Z,59.40
2018-05-31T13:26:22.442Z,61.10
2018-05-31T13:28:48.861Z,61.00
2018-05-31T13:31:15.271Z,64.30
2018-05-31T13:33:42.432Z,66.30
2018-05-31T13:36:09.565Z,66.10
2018-05-31T13:38:35.988Z,66.10
2018-05-31T13:41:02.434Z,66.00
2018-05-31T13:43:28.839Z,66.90
2018-05-31T13:45:55.263Z,66.70
2018-05-31T13:48:21.719Z,68.30
2018-05-31T13:50:48.175Z,68.90
2018-05-31T13:53:15.571Z,68.20
2018-05-31T13:55:41.969Z,68.30
2018-05-31T13:58:08.424Z,69.00
2018-05-31T14:00:34.892Z,67.00
2018-05-31T14:03:01.515Z,64.90
2018-05-31T14:05:27.947Z,63.80
2018-05-31T14:07:54.355Z,63.30
2018-05-31T14:10:20.756Z,64.10
2018-05-31T14:12:47.208Z,64.40
2018-05-31T14:15:14.363Z,64.90
2018-05-31T14:17:41.509Z,66.30
2018-05-31T15:41:15.136Z,56.40
2018-05-31T15:43:41.706Z,57.60
2018-05-31T15:46:08.275Z,56.70
2018-05-31T15:48:34.815Z,56.60
2018-05-31T15:51:01.424Z,56.90
2018-05-31T15:53:28.755Z,57.40
2018-05-31T15:55:56.314Z,57.30
2018-05-31T15:58:22.867Z,57.50
2018-05-31T16:00:56.613Z,57.50
2018-05-31T16:03:23.113Z,56.20
2018-05-31T16:05:49.636Z,57.30
2018-05-31T16:08:16.167Z,58.20
2018-05-31T16:10:44.440Z,59.00
2018-05-31T16:13:10.937Z,59.00
2018-05-31T16:15:37.468Z,59.60
2018-05-31T16:18:04.052Z,61.20
2018-05-31T16:20:31.636Z,63.10
2018-05-31T16:22:58.246Z,63.60
2018-05-31T16:25:24.889Z,66.60
2018-05-31T16:27:51.498Z,65.80
2018-05-31T16:30:18.040Z,64.30
2018-05-31T16:32:52.173Z,63.30
2018-05-31T16:35:18.655Z,62.20
2018-05-31T16:37:45.125Z,61.00
2018-05-31T16:40:11.682Z,61.90
2018-05-31T16:42:38.220Z,62.40
2018-05-31T16:45:04.778Z,63.30
2018-05-31T16:47:31.247Z,62.10
2018-05-31T16:49:59.741Z,63.40
2018-05-31T16:52:26.986Z,66.60
2018-05-31T16:54:53.458Z,66.70
2018-05-31T16:57:19.953Z,68.30
2018-05-31T16:59:48.209Z,65.80
2018-05-31T17:02:14.689Z,65.90
2018-05-31T17:04:41.247Z,65.60
2018-05-31T17:07:07.718Z,66.20
2018-05-31T17:09:34.929Z,68.10
2018-05-31T17:12:01.456Z,68.10
2018-05-31T17:14:27.954Z,64.80
2018-05-31T17:16:55.215Z,65.30
2018-05-31T17:19:21.678Z,65.20
2018-05-31T17:21:49.197Z,66.10
2018-05-31T17:24:16.426Z,69.80
2018-05-31T17:26:42.914Z,69.80
2018-05-31T17:29:09.382Z,69.80
2018-05-31T17:31:35.846Z,72.20
2018-05-31T17:34:02.322Z,72.80
2018-05-31T17:36:28.855Z,73.10
2018-05-31T17:38:55.365Z,74.10
2018-05-31T17:41:21.828Z,74.60
2018-05-31T17:43:48.349Z,74.50
2018-05-31T17:46:14.848Z,74.50
2018-05-31T17:48:42.061Z,76.40
2018-05-31T17:51:22.786Z,76.20
2018-05-31T17:53:50.046Z,75.70
2018-05-31T17:56:16.598Z,75.70
2018-05-31T17:58:43.093Z,76.60
2018-05-31T18:01:10.599Z,78.50
2018-05-31T18:03:37.081Z,76.40
2018-05-31T18:06:03.596Z,76.30
2018-05-31T18:08:30.074Z,76.00
2018-05-31T18:10:57.319Z,77.20
2018-05-31T18:13:24.817Z,77.20
2018-05-31T18:15:51.311Z,77.80
2018-05-31T18:18:18.498Z,78.70
2018-05-31T18:20:44.978Z,78.60
2018-05-31T18:23:11.464Z,77.50
2018-05-31T18:25:37.963Z,77.40
2018-05-31T18:28:07.254Z,78.60
2018-05-31T18:30:34.453Z,79.50
2018-05-31T18:33:01.022Z,79.50
2018-05-31T18:35:28.235Z,81.30
2018-05-31T18:37:55.068Z,81.20
2018-05-31T18:40:21.599Z,81.90
2018-05-31T18:42:48.777Z,82.10
2018-05-31T18:45:15.212Z,82.00
2018-05-31T18:47:41.662Z,82.70
2018-05-31T18:50:08.139Z,83.20
2018-05-31T18:52:34.635Z,84.50
2018-05-31T18:55:01.147Z,84.60
2018-05-31T18:57:27.604Z,84.50
2018-05-31T18:59:54.071Z,84.50
2018-05-31T19:02:21.260Z,85.00
2018-05-31T19:04:47.714Z,85.00
2018-05-31T19:07:14.235Z,84.70
2018-05-31T19:09:40.644Z,85.20
2018-05-31T19:12:08.064Z,85.10
2018-05-31T19:14:34.529Z,85.80
2018-05-31T19:17:00.989Z,86.00
2018-05-31T19:19:33.552Z,86.70
2018-05-31T19:22:00.073Z,87.50
2018-05-31T19:24:32.634Z,87.40
2018-05-31T19:26:59.800Z,87.50
2018-05-31T19:29:26.240Z,87.30
2018-05-31T19:31:52.661Z,87.10
2018-05-31T19:34:19.105Z,88.10
2018-05-31T19:36:51.688Z,88.60
2018-05-31T19:39:18.140Z,90.20
2018-05-31T19:41:44.640Z,90.00
2018-05-31T19:44:17.013Z,90.60
2018-05-31T19:49:08.958Z,91.00
2018-05-31T19:51:41.420Z,91.60
2018-05-31T19:54:08.945Z,91.60
2018-05-31T19:56:35.397Z,91.60
2018-05-31T19:59:07.986Z,91.30
2018-05-31T20:01:40.307Z,91.10
2018-05-31T20:04:06.934Z,91.10
2018-05-31T20:06:33.527Z,91.40
2018-05-31T20:09:01.036Z,91.40
2018-05-31T20:11:27.529Z,91.70
2018-05-31T20:13:55.026Z,93.20
2018-05-31T20:16:21.445Z,92.70
2018-05-31T20:18:47.911Z,92.80
2018-05-31T20:21:14.351Z,93.50
2018-05-31T20:23:40.801Z,93.60
2018-05-31T20:26:07.408Z,94.00
2018-05-31T20:28:41.544Z,94.10
2018-05-31T20:31:08.041Z,94.10
2018-05-31T20:33:34.473Z,94.20
2018-05-31T20:36:01.646Z,93.70
2018-05-31T20:38:28.083Z,93.70
2018-05-31T20:40:54.573Z,93.60
2018-05-31T20:43:22.623Z,93.50
2018-05-31T20:45:51.091Z,93.30
2018-05-31T20:48:18.726Z,93.40
2018-05-31T20:50:46.279Z,93.30
2018-05-31T20:53:13.065Z,93.70
2018-05-31T20:55:40.257Z,93.50
2018-05-31T20:58:07.407Z,93.70
2018-05-31T21:00:34.584Z,94.00
2018-05-31T21:03:00.978Z,94.30
2018-05-31T21:05:27.402Z,94.10
2018-05-31T21:07:54.019Z,93.90
2018-05-31T21:10:20.505Z,94.10
2018-05-31T21:12:46.965Z,94.10
2018-05-31T21:15:13.372Z,94.30
2018-05-31T21:17:39.758Z,94.40
2018-05-31T21:20:06.246Z,94.20
2018-05-31T21:22:32.636Z,94.20
2018-05-31T21:24:59.050Z,94.60
2018-05-31T21:27:26.201Z,94.40
2018-05-31T21:29:53.373Z,94.30
2018-05-31T21:32:19.782Z,94.30
2018-05-31T21:34:46.981Z,93.80
2018-05-31T21:37:14.428Z,93.80
2018-05-31T21:39:40.864Z,94.10
2018-05-31T21:42:07.272Z,93.70
2018-05-31T21:44:33.721Z,95.10
2018-05-31T21:47:00.170Z,94.80
2018-05-31T21:49:26.622Z,94.30
2018-05-31T21:51:53.057Z,94.90
2018-05-31T21:54:20.238Z,95.00
2018-05-31T21:56:47.577Z,95.00
2018-05-31T21:59:14.775Z,94.90
2018-05-31T22:01:41.204Z,94.90
2018-05-31T22:04:07.676Z,94.90
2018-05-31T22:06:34.087Z,95.30
2018-05-31T22:09:00.489Z,95.00
2018-05-31T22:11:26.952Z,94.60
2018-05-31T22:13:54.555Z,94.30
2018-05-31T22:16:21.110Z,94.90
2018-05-31T22:18:47.647Z,94.60
2018-05-31T22:21:14.223Z,95.30
2018-05-31T22:23:40.829Z,95.00
2018-05-31T22:26:07.412Z,94.70
2018-05-31T22:28:34.728Z,94.40
2018-05-31T22:31:01.306Z,94.40
2018-05-31T22:33:28.562Z,94.20
2018-05-31T22:35:56.858Z,94.20
2018-05-31T22:38:23.402Z,94.10
2018-05-31T22:40:50.039Z,94.00
2018-05-31T22:43:16.615Z,93.80
2018-05-31T22:45:43.160Z,93.70
2018-05-31T22:48:09.714Z,94.40
2018-05-31T22:50:36.994Z,94.30
2018-05-31T22:53:03.561Z,94.30
2018-05-31T22:55:30.118Z,93.80
2018-05-31T22:57:56.711Z,93.40
2018-05-31T23:00:23.282Z,93.70
2018-05-31T23:02:49.886Z,93.80
2018-05-31T23:05:16.448Z,93.40
2018-05-31T23:07:43.800Z,93.90
2018-05-31T23:10:10.377Z,93.90
2018-05-31T23:15:10.977Z,93.40
2018-05-31T23:17:37.440Z,93.80
2018-05-31T23:20:03.945Z,94.10
2018-05-31T23:22:30.425Z,94.20
2018-05-31T23:24:57.641Z,94.60
2018-05-31T23:27:24.081Z,94.50
2018-05-31T23:29:50.495Z,94.50
2018-05-31T23:32:17.013Z,94.80
2018-05-31T23:34:44.196Z,94.90
2018-05-31T23:37:11.672Z,94.90
2018-05-31T23:39:38.122Z,95.20
2018-05-31T23:42:04.593Z,95.60
2018-05-31T23:44:31.029Z,95.80
2018-05-31T23:46:58.210Z,96.00
2018-05-31T23:49:24.683Z,96.00
2018-05-31T23:51:51.125Z,96.10
2018-05-31T23:54:53.322Z,96.10
2018-05-31T23:57:20.747Z,96.30
2018-05-31T23:59:47.262Z,96.30
